sensor_id;sensor_type;location;lat;lon;timestamp;temperature;humidity
66835;HTU21D;53743;51.100;5.874;2023-04-03T00:00:47;4.32;81.93
66835;HTU21D;53743;51.100;5.874;2023-04-03T00:01:50;4.30;81.84
66835;HTU21D;53743;51.100;5.874;2023-04-03T00:02:51;4.34;81.89
66835;HTU21D;53743;51.100;5.874;2023-04-03T00:03:53;4.31;81.97
66835;HTU21D;53743;51.100;5.874;2023-04-03T00:04:53;4.30;81.74
66835;HTU21D;53743;51.100;5.874;2023-04-03T00:05:56;4.31;82.10
66835;HTU21D;53743;51.100;5.874;2023-04-03T00:06:56;4.30;82.01
66835;HTU21D;53743;51.100;5.874;2023-04-03T00:07:58;4.27;81.98
66835;HTU21D;53743;51.100;5.874;2023-04-03T00:08:59;4.24;82.14
66835;HTU21D;53743;51.100;5.874;2023-04-03T00:10:02;4.21;82.19
66835;HTU21D;53743;51.100;5.874;2023-04-03T00:11:03;4.22;82.46
66835;HTU21D;53743;51.100;5.874;2023-04-03T00:12:06;4.19;82.52
66835;HTU21D;53743;51.100;5.874;2023-04-03T00:13:09;4.19;82.68
66835;HTU21D;53743;51.100;5.874;2023-04-03T00:14:11;4.16;82.28
66835;HTU21D;53743;51.100;5.874;2023-04-03T00:15:12;4.16;82.65
66835;HTU21D;53743;51.100;5.874;2023-04-03T00:16:14;4.16;82.78
66835;HTU21D;53743;51.100;5.874;2023-04-03T00:17:15;4.18;82.33
66835;HTU21D;53743;51.100;5.874;2023-04-03T00:18:17;4.19;82.10
66835;HTU21D;53743;51.100;5.874;2023-04-03T00:19:18;4.19;82.20
66835;HTU21D;53743;51.100;5.874;2023-04-03T00:20:20;4.22;82.01
66835;HTU21D;53743;51.100;5.874;2023-04-03T00:21:21;4.21;81.89
66835;HTU21D;53743;51.100;5.874;2023-04-03T00:22:23;4.19;81.76
66835;HTU21D;53743;51.100;5.874;2023-04-03T00:23:24;4.17;81.72
66835;HTU21D;53743;51.100;5.874;2023-04-03T00:24:26;4.17;82.27
66835;HTU21D;53743;51.100;5.874;2023-04-03T00:25:27;4.16;82.24
66835;HTU21D;53743;51.100;5.874;2023-04-03T00:26:29;4.13;82.36
66835;HTU21D;53743;51.100;5.874;2023-04-03T00:27:30;4.10;82.60
66835;HTU21D;53743;51.100;5.874;2023-04-03T00:28:33;4.07;82.61
66835;HTU21D;53743;51.100;5.874;2023-04-03T00:29:34;4.06;82.27
66835;HTU21D;53743;51.100;5.874;2023-04-03T00:30:37;4.03;82.65
66835;HTU21D;53743;51.100;5.874;2023-04-03T00:31:38;4.03;82.64
66835;HTU21D;53743;51.100;5.874;2023-04-03T00:32:39;4.01;82.79
66835;HTU21D;53743;51.100;5.874;2023-04-03T00:33:40;3.99;83.05
66835;HTU21D;53743;51.100;5.874;2023-04-03T00:34:43;4.00;82.97
66835;HTU21D;53743;51.100;5.874;2023-04-03T00:35:44;3.98;83.10
66835;HTU21D;53743;51.100;5.874;2023-04-03T00:36:46;3.98;82.52
66835;HTU21D;53743;51.100;5.874;2023-04-03T00:37:47;3.98;82.89
66835;HTU21D;53743;51.100;5.874;2023-04-03T00:38:50;3.99;82.88
66835;HTU21D;53743;51.100;5.874;2023-04-03T00:39:51;3.98;83.00
66835;HTU21D;53743;51.100;5.874;2023-04-03T00:40:53;3.98;82.80
66835;HTU21D;53743;51.100;5.874;2023-04-03T00:41:54;3.99;82.77
66835;HTU21D;53743;51.100;5.874;2023-04-03T00:42:58;3.98;82.67
66835;HTU21D;53743;51.100;5.874;2023-04-03T00:44:00;4.01;82.58
66835;HTU21D;53743;51.100;5.874;2023-04-03T00:46:40;3.99;82.66
66835;HTU21D;53743;51.100;5.874;2023-04-03T00:47:42;3.99;82.62
66835;HTU21D;53743;51.100;5.874;2023-04-03T00:48:46;3.95;82.74
66835;HTU21D;53743;51.100;5.874;2023-04-03T00:49:50;3.93;82.83
66835;HTU21D;53743;51.100;5.874;2023-04-03T00:50:52;3.91;82.78
66835;HTU21D;53743;51.100;5.874;2023-04-03T00:51:57;3.88;82.90
66835;HTU21D;53743;51.100;5.874;2023-04-03T00:52:58;3.89;82.97
66835;HTU21D;53743;51.100;5.874;2023-04-03T00:54:03;3.90;82.99
66835;HTU21D;53743;51.100;5.874;2023-04-03T00:55:08;3.89;82.97
66835;HTU21D;53743;51.100;5.874;2023-04-03T00:56:13;3.89;82.85
66835;HTU21D;53743;51.100;5.874;2023-04-03T00:57:17;3.87;82.99
66835;HTU21D;53743;51.100;5.874;2023-04-03T00:58:25;3.87;82.98
66835;HTU21D;53743;51.100;5.874;2023-04-03T00:59:35;3.87;83.13
66835;HTU21D;53743;51.100;5.874;2023-04-03T01:00:41;3.85;82.99
66835;HTU21D;53743;51.100;5.874;2023-04-03T01:01:44;3.83;83.35
66835;HTU21D;53743;51.100;5.874;2023-04-03T01:02:45;3.80;83.20
66835;HTU21D;53743;51.100;5.874;2023-04-03T01:03:48;3.79;83.22
66835;HTU21D;53743;51.100;5.874;2023-04-03T01:04:51;3.77;83.32
66835;HTU21D;53743;51.100;5.874;2023-04-03T01:05:53;3.76;83.45
66835;HTU21D;53743;51.100;5.874;2023-04-03T01:06:56;3.76;83.70
66835;HTU21D;53743;51.100;5.874;2023-04-03T01:08:00;3.77;83.60
66835;HTU21D;53743;51.100;5.874;2023-04-03T01:09:01;3.78;83.32
66835;HTU21D;53743;51.100;5.874;2023-04-03T01:10:06;3.77;83.47
66835;HTU21D;53743;51.100;5.874;2023-04-03T01:11:08;3.76;83.71
66835;HTU21D;53743;51.100;5.874;2023-04-03T01:12:15;3.75;83.71
66835;HTU21D;53743;51.100;5.874;2023-04-03T01:13:20;3.75;83.65
66835;HTU21D;53743;51.100;5.874;2023-04-03T01:14:22;3.75;83.72
66835;HTU21D;53743;51.100;5.874;2023-04-03T01:15:26;3.74;83.91
66835;HTU21D;53743;51.100;5.874;2023-04-03T01:16:30;3.72;84.04
66835;HTU21D;53743;51.100;5.874;2023-04-03T01:17:35;3.73;83.84
66835;HTU21D;53743;51.100;5.874;2023-04-03T01:18:40;3.73;83.91
66835;HTU21D;53743;51.100;5.874;2023-04-03T01:19:50;3.73;84.24
66835;HTU21D;53743;51.100;5.874;2023-04-03T01:22:38;3.71;84.23
66835;HTU21D;53743;51.100;5.874;2023-04-03T01:23:55;3.71;84.51
66835;HTU21D;53743;51.100;5.874;2023-04-03T01:24:58;3.68;84.32
66835;HTU21D;53743;51.100;5.874;2023-04-03T01:25:59;3.69;84.59
66835;HTU21D;53743;51.100;5.874;2023-04-03T01:27:04;3.67;84.48
66835;HTU21D;53743;51.100;5.874;2023-04-03T01:28:09;3.65;84.74
66835;HTU21D;53743;51.100;5.874;2023-04-03T01:29:11;3.64;84.64
66835;HTU21D;53743;51.100;5.874;2023-04-03T01:30:17;3.64;84.81
66835;HTU21D;53743;51.100;5.874;2023-04-03T01:31:26;3.63;84.76
66835;HTU21D;53743;51.100;5.874;2023-04-03T01:32:30;3.60;84.84
66835;HTU21D;53743;51.100;5.874;2023-04-03T01:33:32;3.61;84.81
66835;HTU21D;53743;51.100;5.874;2023-04-03T01:34:33;3.60;85.16
66835;HTU21D;53743;51.100;5.874;2023-04-03T01:35:35;3.59;85.17
66835;HTU21D;53743;51.100;5.874;2023-04-03T01:36:36;3.59;85.00
66835;HTU21D;53743;51.100;5.874;2023-04-03T01:37:38;3.57;85.42
66835;HTU21D;53743;51.100;5.874;2023-04-03T01:38:39;3.58;85.17
66835;HTU21D;53743;51.100;5.874;2023-04-03T01:39:41;3.57;85.38
66835;HTU21D;53743;51.100;5.874;2023-04-03T01:40:42;3.56;85.57
66835;HTU21D;53743;51.100;5.874;2023-04-03T01:41:44;3.56;85.30
66835;HTU21D;53743;51.100;5.874;2023-04-03T01:42:51;3.53;85.30
66835;HTU21D;53743;51.100;5.874;2023-04-03T01:43:53;3.53;85.65
66835;HTU21D;53743;51.100;5.874;2023-04-03T01:44:53;3.50;85.55
66835;HTU21D;53743;51.100;5.874;2023-04-03T01:45:55;3.49;85.52
66835;HTU21D;53743;51.100;5.874;2023-04-03T01:46:56;3.49;85.61
66835;HTU21D;53743;51.100;5.874;2023-04-03T01:48:01;3.50;85.32
66835;HTU21D;53743;51.100;5.874;2023-04-03T01:49:02;3.49;85.27
66835;HTU21D;53743;51.100;5.874;2023-04-03T01:50:05;3.49;85.50
66835;HTU21D;53743;51.100;5.874;2023-04-03T01:51:08;3.49;85.64
66835;HTU21D;53743;51.100;5.874;2023-04-03T01:52:10;3.49;85.42
66835;HTU21D;53743;51.100;5.874;2023-04-03T01:53:12;3.48;85.68
66835;HTU21D;53743;51.100;5.874;2023-04-03T01:54:14;3.47;85.42
66835;HTU21D;53743;51.100;5.874;2023-04-03T01:55:15;3.47;85.71
66835;HTU21D;53743;51.100;5.874;2023-04-03T01:56:17;3.46;85.93
66835;HTU21D;53743;51.100;5.874;2023-04-03T01:57:19;3.46;85.71
66835;HTU21D;53743;51.100;5.874;2023-04-03T01:58:20;3.44;85.79
66835;HTU21D;53743;51.100;5.874;2023-04-03T01:59:23;3.44;85.81
66835;HTU21D;53743;51.100;5.874;2023-04-03T02:00:25;3.44;85.90
66835;HTU21D;53743;51.100;5.874;2023-04-03T02:01:27;3.42;85.92
66835;HTU21D;53743;51.100;5.874;2023-04-03T02:02:29;3.39;85.94
66835;HTU21D;53743;51.100;5.874;2023-04-03T02:03:31;3.38;85.87
66835;HTU21D;53743;51.100;5.874;2023-04-03T02:04:33;3.36;85.91
66835;HTU21D;53743;51.100;5.874;2023-04-03T02:05:34;3.36;86.20
66835;HTU21D;53743;51.100;5.874;2023-04-03T02:06:36;3.38;86.25
66835;HTU21D;53743;51.100;5.874;2023-04-03T02:07:36;3.38;86.19
66835;HTU21D;53743;51.100;5.874;2023-04-03T02:08:38;3.36;85.96
66835;HTU21D;53743;51.100;5.874;2023-04-03T02:09:40;3.36;86.32
66835;HTU21D;53743;51.100;5.874;2023-04-03T02:10:43;3.35;86.29
66835;HTU21D;53743;51.100;5.874;2023-04-03T02:11:44;3.35;86.25
66835;HTU21D;53743;51.100;5.874;2023-04-03T02:12:47;3.35;86.40
66835;HTU21D;53743;51.100;5.874;2023-04-03T02:13:48;3.33;86.29
66835;HTU21D;53743;51.100;5.874;2023-04-03T02:14:50;3.31;86.47
66835;HTU21D;53743;51.100;5.874;2023-04-03T02:15:51;3.31;86.25
66835;HTU21D;53743;51.100;5.874;2023-04-03T02:16:52;3.30;86.32
66835;HTU21D;53743;51.100;5.874;2023-04-03T02:17:56;3.30;86.48
66835;HTU21D;53743;51.100;5.874;2023-04-03T02:19:00;3.29;86.61
66835;HTU21D;53743;51.100;5.874;2023-04-03T02:20:01;3.29;86.41
66835;HTU21D;53743;51.100;5.874;2023-04-03T02:21:03;3.28;86.68
66835;HTU21D;53743;51.100;5.874;2023-04-03T02:22:05;3.27;86.78
66835;HTU21D;53743;51.100;5.874;2023-04-03T02:23:07;3.27;86.62
66835;HTU21D;53743;51.100;5.874;2023-04-03T02:24:08;3.25;86.71
66835;HTU21D;53743;51.100;5.874;2023-04-03T02:25:10;3.25;86.70
66835;HTU21D;53743;51.100;5.874;2023-04-03T02:26:13;3.25;86.97
66835;HTU21D;53743;51.100;5.874;2023-04-03T02:27:15;3.25;86.72
66835;HTU21D;53743;51.100;5.874;2023-04-03T02:28:16;3.24;86.94
66835;HTU21D;53743;51.100;5.874;2023-04-03T02:29:19;3.24;86.74
66835;HTU21D;53743;51.100;5.874;2023-04-03T02:30:20;3.24;86.82
66835;HTU21D;53743;51.100;5.874;2023-04-03T02:31:22;3.20;87.04
66835;HTU21D;53743;51.100;5.874;2023-04-03T02:32:23;3.23;86.86
66835;HTU21D;53743;51.100;5.874;2023-04-03T02:33:25;3.21;86.97
66835;HTU21D;53743;51.100;5.874;2023-04-03T02:34:27;3.20;87.08
66835;HTU21D;53743;51.100;5.874;2023-04-03T02:35:31;3.20;87.09
66835;HTU21D;53743;51.100;5.874;2023-04-03T02:36:33;3.20;86.86
66835;HTU21D;53743;51.100;5.874;2023-04-03T02:37:38;3.20;87.24
66835;HTU21D;53743;51.100;5.874;2023-04-03T02:38:39;3.20;86.90
66835;HTU21D;53743;51.100;5.874;2023-04-03T02:39:41;3.17;86.86
66835;HTU21D;53743;51.100;5.874;2023-04-03T02:40:42;3.14;86.77
66835;HTU21D;53743;51.100;5.874;2023-04-03T02:41:44;3.12;87.19
66835;HTU21D;53743;51.100;5.874;2023-04-03T02:42:52;3.13;87.04
66835;HTU21D;53743;51.100;5.874;2023-04-03T02:43:54;3.14;86.84
66835;HTU21D;53743;51.100;5.874;2023-04-03T02:44:56;3.14;87.02
66835;HTU21D;53743;51.100;5.874;2023-04-03T02:45:56;3.12;86.93
66835;HTU21D;53743;51.100;5.874;2023-04-03T02:46:58;3.09;87.25
66835;HTU21D;53743;51.100;5.874;2023-04-03T02:47:59;3.11;87.12
66835;HTU21D;53743;51.100;5.874;2023-04-03T02:49:04;3.10;86.81
66835;HTU21D;53743;51.100;5.874;2023-04-03T02:50:07;3.11;86.90
66835;HTU21D;53743;51.100;5.874;2023-04-03T02:51:09;3.11;86.92
66835;HTU21D;53743;51.100;5.874;2023-04-03T02:52:10;3.12;87.19
66835;HTU21D;53743;51.100;5.874;2023-04-03T02:53:12;3.10;86.95
66835;HTU21D;53743;51.100;5.874;2023-04-03T02:54:13;3.10;87.24
66835;HTU21D;53743;51.100;5.874;2023-04-03T02:55:19;3.12;87.25
66835;HTU21D;53743;51.100;5.874;2023-04-03T02:56:23;3.11;87.36
66835;HTU21D;53743;51.100;5.874;2023-04-03T02:57:25;3.09;87.40
66835;HTU21D;53743;51.100;5.874;2023-04-03T02:58:26;3.05;87.13
66835;HTU21D;53743;51.100;5.874;2023-04-03T02:59:30;3.08;87.26
66835;HTU21D;53743;51.100;5.874;2023-04-03T03:00:31;3.05;87.34
66835;HTU21D;53743;51.100;5.874;2023-04-03T03:01:33;3.05;87.22
66835;HTU21D;53743;51.100;5.874;2023-04-03T03:02:34;3.05;87.19
66835;HTU21D;53743;51.100;5.874;2023-04-03T03:03:36;3.03;87.06
66835;HTU21D;53743;51.100;5.874;2023-04-03T03:04:37;3.04;87.26
66835;HTU21D;53743;51.100;5.874;2023-04-03T03:05:40;3.06;87.05
66835;HTU21D;53743;51.100;5.874;2023-04-03T03:06:41;3.06;87.15
66835;HTU21D;53743;51.100;5.874;2023-04-03T03:07:43;3.05;87.50
66835;HTU21D;53743;51.100;5.874;2023-04-03T03:08:44;3.04;87.32
66835;HTU21D;53743;51.100;5.874;2023-04-03T03:09:45;3.06;87.46
66835;HTU21D;53743;51.100;5.874;2023-04-03T03:10:46;3.04;87.53
66835;HTU21D;53743;51.100;5.874;2023-04-03T03:11:48;3.05;87.53
66835;HTU21D;53743;51.100;5.874;2023-04-03T03:12:49;3.05;87.45
66835;HTU21D;53743;51.100;5.874;2023-04-03T03:13:51;3.06;87.77
66835;HTU21D;53743;51.100;5.874;2023-04-03T03:14:52;3.05;87.73
66835;HTU21D;53743;51.100;5.874;2023-04-03T03:15:54;3.06;87.51
66835;HTU21D;53743;51.100;5.874;2023-04-03T03:16:55;3.08;87.59
66835;HTU21D;53743;51.100;5.874;2023-04-03T03:17:57;3.06;87.54
66835;HTU21D;53743;51.100;5.874;2023-04-03T03:18:58;3.04;87.62
66835;HTU21D;53743;51.100;5.874;2023-04-03T03:20:00;3.03;88.14
66835;HTU21D;53743;51.100;5.874;2023-04-03T03:21:03;3.04;87.94
66835;HTU21D;53743;51.100;5.874;2023-04-03T03:22:05;3.04;87.96
66835;HTU21D;53743;51.100;5.874;2023-04-03T03:23:06;3.02;88.02
66835;HTU21D;53743;51.100;5.874;2023-04-03T03:24:08;3.03;88.37
66835;HTU21D;53743;51.100;5.874;2023-04-03T03:25:09;3.03;88.30
66835;HTU21D;53743;51.100;5.874;2023-04-03T03:26:11;3.02;88.24
66835;HTU21D;53743;51.100;5.874;2023-04-03T03:27:12;3.02;88.54
66835;HTU21D;53743;51.100;5.874;2023-04-03T03:28:14;3.01;88.31
66835;HTU21D;53743;51.100;5.874;2023-04-03T03:29:15;3.00;88.39
66835;HTU21D;53743;51.100;5.874;2023-04-03T03:30:18;3.01;88.35
66835;HTU21D;53743;51.100;5.874;2023-04-03T03:31:19;3.01;88.60
66835;HTU21D;53743;51.100;5.874;2023-04-03T03:32:21;3.01;88.33
66835;HTU21D;53743;51.100;5.874;2023-04-03T03:33:22;3.01;88.44
66835;HTU21D;53743;51.100;5.874;2023-04-03T03:34:24;3.01;88.64
66835;HTU21D;53743;51.100;5.874;2023-04-03T03:35:25;2.98;88.69
66835;HTU21D;53743;51.100;5.874;2023-04-03T03:36:28;2.99;88.85
66835;HTU21D;53743;51.100;5.874;2023-04-03T03:37:31;2.99;88.55
66835;HTU21D;53743;51.100;5.874;2023-04-03T03:38:32;2.98;88.99
66835;HTU21D;53743;51.100;5.874;2023-04-03T03:39:35;2.98;88.57
66835;HTU21D;53743;51.100;5.874;2023-04-03T03:40:36;2.98;88.89
66835;HTU21D;53743;51.100;5.874;2023-04-03T03:41:38;2.95;88.59
66835;HTU21D;53743;51.100;5.874;2023-04-03T03:42:39;2.93;88.80
66835;HTU21D;53743;51.100;5.874;2023-04-03T03:43:41;2.93;89.02
66835;HTU21D;53743;51.100;5.874;2023-04-03T03:44:42;2.94;89.14
66835;HTU21D;53743;51.100;5.874;2023-04-03T03:45:44;2.94;88.80
66835;HTU21D;53743;51.100;5.874;2023-04-03T03:46:46;2.93;88.83
66835;HTU21D;53743;51.100;5.874;2023-04-03T03:47:48;2.94;89.21
66835;HTU21D;53743;51.100;5.874;2023-04-03T03:48:50;2.95;88.86
66835;HTU21D;53743;51.100;5.874;2023-04-03T03:49:52;2.93;89.20
66835;HTU21D;53743;51.100;5.874;2023-04-03T03:50:53;2.94;89.36
66835;HTU21D;53743;51.100;5.874;2023-04-03T03:52:00;2.91;89.03
66835;HTU21D;53743;51.100;5.874;2023-04-03T03:53:02;2.94;89.22
66835;HTU21D;53743;51.100;5.874;2023-04-03T03:54:03;2.93;89.27
66835;HTU21D;53743;51.100;5.874;2023-04-03T03:55:06;2.89;89.58
66835;HTU21D;53743;51.100;5.874;2023-04-03T03:56:08;2.88;89.34
66835;HTU21D;53743;51.100;5.874;2023-04-03T03:57:12;2.90;89.59
66835;HTU21D;53743;51.100;5.874;2023-04-03T03:58:13;2.89;89.48
66835;HTU21D;53743;51.100;5.874;2023-04-03T03:59:15;2.90;89.39
66835;HTU21D;53743;51.100;5.874;2023-04-03T04:00:17;2.90;89.38
66835;HTU21D;53743;51.100;5.874;2023-04-03T04:01:26;2.89;89.33
66835;HTU21D;53743;51.100;5.874;2023-04-03T04:02:28;2.86;89.72
66835;HTU21D;53743;51.100;5.874;2023-04-03T04:03:29;2.86;89.54
66835;HTU21D;53743;51.100;5.874;2023-04-03T04:04:31;2.87;89.61
66835;HTU21D;53743;51.100;5.874;2023-04-03T04:05:32;2.88;89.23
66835;HTU21D;53743;51.100;5.874;2023-04-03T04:06:35;2.87;89.52
66835;HTU21D;53743;51.100;5.874;2023-04-03T04:07:40;2.83;89.15
66835;HTU21D;53743;51.100;5.874;2023-04-03T04:08:43;2.82;89.26
66835;HTU21D;53743;51.100;5.874;2023-04-03T04:09:45;2.80;89.47
66835;HTU21D;53743;51.100;5.874;2023-04-03T04:10:48;2.79;89.35
66835;HTU21D;53743;51.100;5.874;2023-04-03T04:11:50;2.80;89.35
66835;HTU21D;53743;51.100;5.874;2023-04-03T04:12:52;2.79;89.31
66835;HTU21D;53743;51.100;5.874;2023-04-03T04:13:57;2.76;89.80
66835;HTU21D;53743;51.100;5.874;2023-04-03T04:15:01;2.74;89.50
66835;HTU21D;53743;51.100;5.874;2023-04-03T04:16:03;2.78;89.70
66835;HTU21D;53743;51.100;5.874;2023-04-03T04:17:07;2.80;89.66
66835;HTU21D;53743;51.100;5.874;2023-04-03T04:18:10;2.80;89.02
66835;HTU21D;53743;51.100;5.874;2023-04-03T04:19:12;2.76;88.89
66835;HTU21D;53743;51.100;5.874;2023-04-03T04:20:13;2.74;89.35
66835;HTU21D;53743;51.100;5.874;2023-04-03T04:21:16;2.79;89.21
66835;HTU21D;53743;51.100;5.874;2023-04-03T04:22:18;2.76;89.40
66835;HTU21D;53743;51.100;5.874;2023-04-03T04:23:22;2.72;89.49
66835;HTU21D;53743;51.100;5.874;2023-04-03T04:24:23;2.73;89.18
66835;HTU21D;53743;51.100;5.874;2023-04-03T04:25:28;2.73;89.38
66835;HTU21D;53743;51.100;5.874;2023-04-03T04:26:29;2.73;89.55
66835;HTU21D;53743;51.100;5.874;2023-04-03T04:27:31;2.72;89.41
66835;HTU21D;53743;51.100;5.874;2023-04-03T04:28:32;2.72;89.63
66835;HTU21D;53743;51.100;5.874;2023-04-03T04:29:35;2.70;89.80
66835;HTU21D;53743;51.100;5.874;2023-04-03T04:30:39;2.68;89.55
66835;HTU21D;53743;51.100;5.874;2023-04-03T04:31:41;2.68;90.05
66835;HTU21D;53743;51.100;5.874;2023-04-03T04:32:42;2.68;89.60
66835;HTU21D;53743;51.100;5.874;2023-04-03T04:33:44;2.64;90.16
66835;HTU21D;53743;51.100;5.874;2023-04-03T04:34:47;2.61;90.09
66835;HTU21D;53743;51.100;5.874;2023-04-03T04:35:49;2.62;90.07
66835;HTU21D;53743;51.100;5.874;2023-04-03T04:36:54;2.61;90.04
66835;HTU21D;53743;51.100;5.874;2023-04-03T04:37:54;2.61;90.19
66835;HTU21D;53743;51.100;5.874;2023-04-03T04:38:58;2.60;90.11
66835;HTU21D;53743;51.100;5.874;2023-04-03T04:40:01;2.61;90.14
66835;HTU21D;53743;51.100;5.874;2023-04-03T04:41:04;2.60;89.88
66835;HTU21D;53743;51.100;5.874;2023-04-03T04:42:05;2.59;89.95
66835;HTU21D;53743;51.100;5.874;2023-04-03T04:43:08;2.59;90.14
66835;HTU21D;53743;51.100;5.874;2023-04-03T04:44:09;2.57;90.37
66835;HTU21D;53743;51.100;5.874;2023-04-03T04:45:12;2.58;90.19
66835;HTU21D;53743;51.100;5.874;2023-04-03T04:46:16;2.56;89.89
66835;HTU21D;53743;51.100;5.874;2023-04-03T04:47:23;2.53;90.27
66835;HTU21D;53743;51.100;5.874;2023-04-03T04:48:24;2.56;90.12
66835;HTU21D;53743;51.100;5.874;2023-04-03T04:49:25;2.53;89.97
66835;HTU21D;53743;51.100;5.874;2023-04-03T04:50:27;2.51;90.24
66835;HTU21D;53743;51.100;5.874;2023-04-03T04:51:30;2.52;90.42
66835;HTU21D;53743;51.100;5.874;2023-04-03T04:52:31;2.53;90.66
66835;HTU21D;53743;51.100;5.874;2023-04-03T04:53:33;2.51;90.66
66835;HTU21D;53743;51.100;5.874;2023-04-03T04:54:35;2.52;90.77
66835;HTU21D;53743;51.100;5.874;2023-04-03T04:55:37;2.53;90.40
66835;HTU21D;53743;51.100;5.874;2023-04-03T04:56:38;2.51;90.67
66835;HTU21D;53743;51.100;5.874;2023-04-03T04:57:40;2.51;90.71
66835;HTU21D;53743;51.100;5.874;2023-04-03T04:58:41;2.51;90.82
66835;HTU21D;53743;51.100;5.874;2023-04-03T04:59:43;2.50;90.59
66835;HTU21D;53743;51.100;5.874;2023-04-03T05:00:44;2.49;90.61
66835;HTU21D;53743;51.100;5.874;2023-04-03T05:01:46;2.45;90.54
66835;HTU21D;53743;51.100;5.874;2023-04-03T05:02:50;2.43;90.63
66835;HTU21D;53743;51.100;5.874;2023-04-03T05:03:53;2.43;90.57
66835;HTU21D;53743;51.100;5.874;2023-04-03T05:04:56;2.44;90.38
66835;HTU21D;53743;51.100;5.874;2023-04-03T05:06:01;2.45;90.47
66835;HTU21D;53743;51.100;5.874;2023-04-03T05:07:05;2.42;90.38
66835;HTU21D;53743;51.100;5.874;2023-04-03T05:08:09;2.42;90.57
66835;HTU21D;53743;51.100;5.874;2023-04-03T05:09:13;2.45;90.46
66835;HTU21D;53743;51.100;5.874;2023-04-03T05:10:17;2.46;90.57
66835;HTU21D;53743;51.100;5.874;2023-04-03T05:11:19;2.47;90.86
66835;HTU21D;53743;51.100;5.874;2023-04-03T05:12:23;2.46;90.68
66835;HTU21D;53743;51.100;5.874;2023-04-03T05:13:30;2.45;90.44
66835;HTU21D;53743;51.100;5.874;2023-04-03T05:14:31;2.44;90.31
66835;HTU21D;53743;51.100;5.874;2023-04-03T05:15:37;2.44;90.78
66835;HTU21D;53743;51.100;5.874;2023-04-03T05:16:38;2.44;90.55
66835;HTU21D;53743;51.100;5.874;2023-04-03T05:17:41;2.43;90.32
66835;HTU21D;53743;51.100;5.874;2023-04-03T05:18:45;2.43;90.33
66835;HTU21D;53743;51.100;5.874;2023-04-03T05:19:52;2.47;90.46
66835;HTU21D;53743;51.100;5.874;2023-04-03T05:20:56;2.55;89.83
66835;HTU21D;53743;51.100;5.874;2023-04-03T05:22:00;2.57;89.18
66835;HTU21D;53743;51.100;5.874;2023-04-03T05:23:02;2.60;89.49
66835;HTU21D;53743;51.100;5.874;2023-04-03T05:24:06;2.64;89.25
66835;HTU21D;53743;51.100;5.874;2023-04-03T05:25:11;2.59;89.47
66835;HTU21D;53743;51.100;5.874;2023-04-03T05:26:18;2.55;89.09
66835;HTU21D;53743;51.100;5.874;2023-04-03T05:27:21;2.58;88.98
66835;HTU21D;53743;51.100;5.874;2023-04-03T05:28:27;2.60;88.99
66835;HTU21D;53743;51.100;5.874;2023-04-03T05:29:28;2.58;89.31
66835;HTU21D;53743;51.100;5.874;2023-04-03T05:30:32;2.54;88.84
66835;HTU21D;53743;51.100;5.874;2023-04-03T05:31:37;2.55;89.62
66835;HTU21D;53743;51.100;5.874;2023-04-03T05:32:38;2.56;89.08
66835;HTU21D;53743;51.100;5.874;2023-04-03T05:34:06;2.54;89.16
66835;HTU21D;53743;51.100;5.874;2023-04-03T05:35:11;2.59;89.65
66835;HTU21D;53743;51.100;5.874;2023-04-03T05:36:13;2.57;88.44
66835;HTU21D;53743;51.100;5.874;2023-04-03T05:37:19;2.61;89.16
66835;HTU21D;53743;51.100;5.874;2023-04-03T05:38:21;2.59;89.29
66835;HTU21D;53743;51.100;5.874;2023-04-03T05:39:23;2.62;89.02
66835;HTU21D;53743;51.100;5.874;2023-04-03T05:40:25;2.62;89.12
66835;HTU21D;53743;51.100;5.874;2023-04-03T05:41:31;2.66;89.54
66835;HTU21D;53743;51.100;5.874;2023-04-03T05:42:32;2.67;89.60
66835;HTU21D;53743;51.100;5.874;2023-04-03T05:43:34;2.68;88.98
66835;HTU21D;53743;51.100;5.874;2023-04-03T05:44:38;2.69;89.60
66835;HTU21D;53743;51.100;5.874;2023-04-03T05:45:42;2.72;89.28
66835;HTU21D;53743;51.100;5.874;2023-04-03T05:46:43;2.74;89.50
66835;HTU21D;53743;51.100;5.874;2023-04-03T05:47:45;2.79;88.92
66835;HTU21D;53743;51.100;5.874;2023-04-03T05:48:48;2.81;88.15
66835;HTU21D;53743;51.100;5.874;2023-04-03T05:49:52;2.84;88.54
66835;HTU21D;53743;51.100;5.874;2023-04-03T05:50:54;2.91;88.71
66835;HTU21D;53743;51.100;5.874;2023-04-03T05:51:58;2.94;87.89
66835;HTU21D;53743;51.100;5.874;2023-04-03T05:53:04;3.04;87.77
66835;HTU21D;53743;51.100;5.874;2023-04-03T05:54:13;3.10;87.32
66835;HTU21D;53743;51.100;5.874;2023-04-03T05:55:16;3.25;87.57
66835;HTU21D;53743;51.100;5.874;2023-04-03T05:56:18;3.35;86.16
66835;HTU21D;53743;51.100;5.874;2023-04-03T05:57:22;3.56;87.07
66835;HTU21D;53743;51.100;5.874;2023-04-03T05:58:24;3.75;86.71
66835;HTU21D;53743;51.100;5.874;2023-04-03T05:59:27;4.02;83.16
66835;HTU21D;53743;51.100;5.874;2023-04-03T06:00:31;4.31;85.59
66835;HTU21D;53743;51.100;5.874;2023-04-03T06:01:36;4.50;83.25
66835;HTU21D;53743;51.100;5.874;2023-04-03T06:02:38;4.65;82.81
66835;HTU21D;53743;51.100;5.874;2023-04-03T06:03:40;4.73;79.73
66835;HTU21D;53743;51.100;5.874;2023-04-03T06:04:43;4.82;80.38
66835;HTU21D;53743;51.100;5.874;2023-04-03T06:05:45;4.87;80.63
66835;HTU21D;53743;51.100;5.874;2023-04-03T06:06:48;4.86;79.53
66835;HTU21D;53743;51.100;5.874;2023-04-03T06:07:51;4.98;78.85
66835;HTU21D;53743;51.100;5.874;2023-04-03T06:08:54;5.19;78.56
66835;HTU21D;53743;51.100;5.874;2023-04-03T06:09:57;5.54;81.29
66835;HTU21D;53743;51.100;5.874;2023-04-03T06:10:58;5.99;80.62
66835;HTU21D;53743;51.100;5.874;2023-04-03T06:12:01;6.45;78.59
66835;HTU21D;53743;51.100;5.874;2023-04-03T06:13:06;6.96;75.74
66835;HTU21D;53743;51.100;5.874;2023-04-03T06:14:09;7.38;74.52
66835;HTU21D;53743;51.100;5.874;2023-04-03T06:15:10;7.75;74.64
66835;HTU21D;53743;51.100;5.874;2023-04-03T06:16:15;8.14;66.15
66835;HTU21D;53743;51.100;5.874;2023-04-03T06:17:18;8.53;70.52
66835;HTU21D;53743;51.100;5.874;2023-04-03T06:18:19;8.90;67.07
66835;HTU21D;53743;51.100;5.874;2023-04-03T06:19:21;9.17;66.49
66835;HTU21D;53743;51.100;5.874;2023-04-03T06:20:25;9.47;66.85
66835;HTU21D;53743;51.100;5.874;2023-04-03T06:21:28;9.76;64.61
66835;HTU21D;53743;51.100;5.874;2023-04-03T06:22:30;9.92;59.08
66835;HTU21D;53743;51.100;5.874;2023-04-03T06:23:32;10.12;62.38
66835;HTU21D;53743;51.100;5.874;2023-04-03T06:24:33;10.30;60.92
66835;HTU21D;53743;51.100;5.874;2023-04-03T06:25:36;10.48;58.34
66835;HTU21D;53743;51.100;5.874;2023-04-03T06:26:38;10.63;56.92
66835;HTU21D;53743;51.100;5.874;2023-04-03T06:27:39;10.78;59.16
66835;HTU21D;53743;51.100;5.874;2023-04-03T06:28:42;10.82;52.59
66835;HTU21D;53743;51.100;5.874;2023-04-03T06:29:43;10.98;53.43
66835;HTU21D;53743;51.100;5.874;2023-04-03T06:30:45;11.19;55.70
66835;HTU21D;53743;51.100;5.874;2023-04-03T06:31:46;11.25;51.70
66835;HTU21D;53743;51.100;5.874;2023-04-03T06:32:48;11.42;0.00
66835;HTU21D;53743;51.100;5.874;2023-04-03T06:33:50;11.54;53.14
66835;HTU21D;53743;51.100;5.874;2023-04-03T06:34:51;11.61;47.55
66835;HTU21D;53743;51.100;5.874;2023-04-03T06:35:57;11.73;51.50
66835;HTU21D;53743;51.100;5.874;2023-04-03T06:36:59;11.82;46.89
66835;HTU21D;53743;51.100;5.874;2023-04-03T06:38:01;11.91;52.82
66835;HTU21D;53743;51.100;5.874;2023-04-03T06:39:05;12.01;48.18